createdAt,value
2023-03-06T00:01:29.534Z,-1.20
2023-03-06T00:03:58.029Z,-0.94
2023-03-06T00:06:28.275Z,-1.28
2023-03-06T00:08:57.119Z,-1.28
2023-03-06T00:11:25.450Z,-1.03
2023-03-06T00:13:53.889Z,-1.26
2023-03-06T00:16:22.829Z,-1.31
2023-03-06T00:18:51.313Z,-1.39
2023-03-06T00:21:19.762Z,-1.47
2023-03-06T00:23:49.551Z,-1.31
2023-03-06T00:26:18.069Z,-1.53
2023-03-06T00:28:46.980Z,-1.49
2023-03-06T00:31:15.727Z,-1.37
2023-03-06T00:33:44.178Z,-1.90
2023-03-06T00:36:13.217Z,-1.64
2023-03-06T00:38:42.717Z,-2.14
2023-03-06T00:41:14.771Z,-1.63
2023-03-06T00:43:43.172Z,-1.85
2023-03-06T00:46:11.693Z,-1.71
2023-03-06T00:48:41.238Z,-1.95
2023-03-06T00:51:11.426Z,-1.90
2023-03-06T00:53:41.245Z,-1.60
2023-03-06T00:56:10.500Z,-1.58
2023-03-06T00:58:40.263Z,-1.70
2023-03-06T01:01:09.452Z,-2.03
2023-03-06T01:03:38.151Z,-1.81
2023-03-06T01:06:07.162Z,-1.73
2023-03-06T01:08:37.153Z,-1.80
2023-03-06T01:11:05.910Z,-1.68
2023-03-06T01:13:34.498Z,-1.86
2023-03-06T01:16:14.321Z,-1.74
2023-03-06T01:18:43.488Z,-1.74
2023-03-06T01:21:14.978Z,-1.99
2023-03-06T01:23:43.951Z,-1.94
2023-03-06T01:26:12.414Z,-1.82
2023-03-06T01:28:41.106Z,-2.16
2023-03-06T01:31:11.512Z,-2.13
2023-03-06T01:33:40.006Z,-1.89
2023-03-06T01:36:12.455Z,-2.02
2023-03-06T01:38:40.799Z,-2.14
2023-03-06T01:41:10.939Z,-2.15
2023-03-06T01:43:42.424Z,-1.81
2023-03-06T01:46:33.750Z,-2.07
2023-03-06T01:49:07.419Z,-1.85
2023-03-06T01:51:40.731Z,-2.28
2023-03-06T01:54:14.349Z,-1.95
2023-03-06T01:56:47.929Z,-2.15
2023-03-06T01:59:18.108Z,-2.32
2023-03-06T02:01:49.044Z,-2.13
2023-03-06T02:04:18.807Z,-2.08
2023-03-06T02:06:48.517Z,-2.14
2023-03-06T02:09:17.578Z,-2.36
2023-03-06T02:11:46.590Z,-2.13
2023-03-06T02:14:18.373Z,-2.59
2023-03-06T02:16:49.803Z,-2.08
2023-03-06T02:19:34.340Z,-1.96
2023-03-06T02:22:03.647Z,-2.08
2023-03-06T02:24:43.731Z,-2.13
2023-03-06T02:27:15.847Z,-1.80
2023-03-06T02:29:45.104Z,-2.15
2023-03-06T02:32:13.769Z,-1.99
2023-03-06T02:34:54.727Z,-2.05
2023-03-06T02:37:26.198Z,-3.29
2023-03-06T02:40:09.188Z,-2.37
2023-03-06T02:42:39.210Z,-2.19
2023-03-06T02:45:12.654Z,-2.14
2023-03-06T02:47:43.614Z,-2.23
2023-03-06T02:50:13.090Z,-2.14
2023-03-06T02:52:41.410Z,-2.07
2023-03-06T02:55:10.585Z,-1.98
2023-03-06T02:57:40.594Z,-2.00
2023-03-06T03:00:11.360Z,-2.01
2023-03-06T03:02:40.099Z,-2.09
2023-03-06T03:05:09.369Z,-2.38
2023-03-06T03:07:43.020Z,-2.33
2023-03-06T03:10:13.801Z,-2.28
2023-03-06T03:12:45.279Z,-2.15
2023-03-06T03:15:15.160Z,-3.51
2023-03-06T03:17:43.963Z,-2.27
2023-03-06T03:20:16.524Z,-2.45
2023-03-06T03:22:48.747Z,-2.48
2023-03-06T03:25:19.090Z,-2.61
2023-03-06T03:27:49.186Z,-2.30
2023-03-06T03:30:18.209Z,-3.10
2023-03-06T03:32:46.972Z,-2.34
2023-03-06T03:35:15.584Z,-2.72
2023-03-06T03:37:44.419Z,-2.46
2023-03-06T03:40:14.271Z,-2.30
2023-03-06T03:42:42.783Z,-2.19
2023-03-06T03:45:13.776Z,-2.36
2023-03-06T03:47:42.710Z,-2.18
2023-03-06T03:50:14.014Z,-2.27
2023-03-06T03:52:42.867Z,-2.14
2023-03-06T03:55:13.330Z,-2.21
2023-03-06T03:57:44.237Z,-2.42
2023-03-06T04:00:16.796Z,-2.10
2023-03-06T04:02:55.166Z,-2.18
2023-03-06T04:05:33.243Z,-1.85
2023-03-06T04:08:04.336Z,-2.39
2023-03-06T04:10:34.578Z,-2.26
2023-03-06T04:13:04.205Z,-2.33
2023-03-06T04:15:34.192Z,-1.82
2023-03-06T04:18:03.403Z,-2.31
2023-03-06T04:20:31.868Z,-1.86
2023-03-06T04:23:01.925Z,-1.96
2023-03-06T04:25:30.785Z,-1.94
2023-03-06T04:28:01.323Z,-1.90
2023-03-06T04:30:31.184Z,-1.78
2023-03-06T04:33:02.021Z,-2.04
2023-03-06T04:35:30.522Z,-2.36
2023-03-06T04:38:03.758Z,-1.64
2023-03-06T04:40:35.031Z,-1.60
2023-03-06T04:43:04.967Z,-1.52
2023-03-06T04:45:35.587Z,-1.72
2023-03-06T04:48:06.132Z,-1.49
2023-03-06T04:50:35.101Z,-1.53
2023-03-06T04:53:04.803Z,-1.50
2023-03-06T04:55:33.175Z,-1.61
2023-03-06T04:58:02.149Z,-1.69
2023-03-06T05:00:31.789Z,-1.65
2023-03-06T05:03:03.955Z,-1.59
2023-03-06T05:05:33.867Z,-1.56
2023-03-06T05:08:02.249Z,-1.62
2023-03-06T05:10:30.823Z,-1.54
2023-03-06T05:12:59.213Z,-1.99
2023-03-06T05:15:27.656Z,-1.48
2023-03-06T05:17:56.586Z,-1.16
2023-03-06T05:20:25.278Z,-1.70
2023-03-06T05:22:57.860Z,-1.25
2023-03-06T05:25:26.452Z,-1.35
2023-03-06T05:27:58.379Z,-1.27
2023-03-06T05:30:27.236Z,-2.47
2023-03-06T05:32:56.988Z,-1.31
2023-03-06T05:35:25.746Z,-1.15
2023-03-06T05:37:56.999Z,-1.32
2023-03-06T05:40:25.745Z,-1.38
2023-03-06T05:42:54.385Z,-1.57
2023-03-06T05:45:23.158Z,-1.85
2023-03-06T05:47:51.616Z,-1.39
2023-03-06T05:50:20.364Z,-1.34
2023-03-06T05:52:48.790Z,-1.38
2023-03-06T05:55:19.598Z,-1.24
2023-03-06T05:57:48.048Z,-1.37
2023-03-06T06:00:17.889Z,-1.25
2023-03-06T06:02:47.039Z,-1.23
2023-03-06T06:05:15.828Z,-1.17
2023-03-06T06:07:44.333Z,-1.73
2023-03-06T06:10:13.660Z,-1.51
2023-03-06T06:12:43.600Z,-1.78
2023-03-06T06:15:11.980Z,-0.86
2023-03-06T06:17:40.731Z,-0.96
2023-03-06T06:20:18.601Z,-1.87
2023-03-06T06:22:47.140Z,-1.74
2023-03-06T06:25:16.739Z,-0.82
2023-03-06T06:27:46.537Z,-2.00
2023-03-06T06:30:15.504Z,-1.73
2023-03-06T06:32:44.028Z,-1.33
2023-03-06T06:35:12.435Z,-0.91
2023-03-06T06:37:40.930Z,-0.93
2023-03-06T06:40:11.482Z,-1.86
2023-03-06T06:42:40.502Z,-0.85
2023-03-06T06:45:12.779Z,-1.20
2023-03-06T06:47:41.736Z,-0.83
2023-03-06T06:50:13.898Z,-0.96
2023-03-06T06:52:42.662Z,-1.24
2023-03-06T06:55:12.226Z,-1.45
2023-03-06T06:57:42.401Z,-0.33
2023-03-06T07:00:15.472Z,-0.34
2023-03-06T07:02:44.022Z,-0.63
2023-03-06T07:05:12.720Z,-0.46
2023-03-06T07:07:41.273Z,-1.43
2023-03-06T07:10:15.692Z,-0.62
2023-03-06T07:12:44.359Z,-0.50
2023-03-06T07:15:17.423Z,-0.92
2023-03-06T07:17:47.153Z,-0.45
2023-03-06T07:20:16.779Z,-0.67
2023-03-06T07:22:51.503Z,-0.49
2023-03-06T07:25:20.997Z,-0.14
2023-03-06T07:27:53.874Z,-0.06
2023-03-06T07:30:25.523Z,-0.02
2023-03-06T07:32:55.827Z,-0.38
2023-03-06T07:35:26.311Z,-0.40
2023-03-06T07:37:55.185Z,-0.58
2023-03-06T07:40:24.528Z,0.47
2023-03-06T07:43:06.105Z,0.07
2023-03-06T07:45:47.582Z,0.51
2023-03-06T07:48:16.290Z,-0.07
2023-03-06T07:50:45.135Z,0.11
2023-03-06T07:53:14.292Z,0.32
2023-03-06T07:55:42.757Z,0.09
2023-03-06T07:58:11.640Z,-0.13
2023-03-06T08:00:40.252Z,0.30
2023-03-06T08:03:11.580Z,0.13
2023-03-06T08:05:40.495Z,0.35
2023-03-06T08:08:09.886Z,0.34
2023-03-06T08:10:38.862Z,0.30
2023-03-06T08:13:07.367Z,0.64
2023-03-06T08:15:36.072Z,0.85
2023-03-06T08:18:04.764Z,-0.02
2023-03-06T08:20:34.947Z,0.18
2023-03-06T08:23:03.358Z,1.33
2023-03-06T08:25:31.760Z,1.51
2023-03-06T08:28:01.034Z,1.15
2023-03-06T08:30:31.073Z,1.27
2023-03-06T08:32:59.958Z,0.75
2023-03-06T08:35:28.664Z,1.32
2023-03-06T08:37:58.742Z,0.81
2023-03-06T08:40:30.548Z,1.78
2023-03-06T08:42:59.250Z,1.90
2023-03-06T08:45:27.779Z,1.86
2023-03-06T08:47:56.313Z,2.11
2023-03-06T08:50:24.866Z,2.19
2023-03-06T08:52:53.412Z,2.45
2023-03-06T08:55:23.630Z,2.56
2023-03-06T08:57:52.094Z,2.41
2023-03-06T09:00:22.416Z,2.90
2023-03-06T09:02:51.215Z,2.92
2023-03-06T09:05:20.527Z,2.94
2023-03-06T09:07:48.957Z,3.23
2023-03-06T09:10:20.744Z,3.37
2023-03-06T09:12:53.752Z,3.40
2023-03-06T09:15:24.882Z,3.35
2023-03-06T09:17:54.201Z,2.95
2023-03-06T09:20:23.630Z,3.31
2023-03-06T09:22:52.267Z,3.50
2023-03-06T09:25:23.246Z,3.53
2023-03-06T09:28:08.797Z,3.39
2023-03-06T09:30:40.765Z,3.57
2023-03-06T09:33:09.327Z,3.70
2023-03-06T09:35:42.030Z,3.74
2023-03-06T09:38:10.431Z,4.15
2023-03-06T09:40:56.647Z,4.02
2023-03-06T09:43:32.880Z,4.10
2023-03-06T09:46:01.502Z,3.99
2023-03-06T09:48:40.936Z,3.54
2023-03-06T09:51:16.353Z,3.74
2023-03-06T09:54:02.425Z,3.97
2023-03-06T09:56:34.474Z,4.00
2023-03-06T09:59:15.379Z,4.11
2023-03-06T10:01:47.388Z,3.87
2023-03-06T10:04:35.698Z,3.73
2023-03-06T10:07:13.519Z,3.46
2023-03-06T10:09:49.638Z,2.82
2023-03-06T10:12:26.178Z,2.61
2023-03-06T10:15:12.859Z,2.59
2023-03-06T10:17:43.378Z,2.28
2023-03-06T10:20:19.992Z,1.98
2023-03-06T10:23:05.355Z,1.77
2023-03-06T10:25:43.550Z,1.91
2023-03-06T10:28:19.444Z,2.15
2023-03-06T10:30:57.805Z,2.30
2023-03-06T10:33:43.726Z,2.32
2023-03-06T10:36:17.067Z,2.43
2023-03-06T10:38:48.667Z,2.82
2023-03-06T10:41:27.236Z,3.06
2023-03-06T10:44:23.556Z,3.35
2023-03-06T10:46:55.708Z,3.34
2023-03-06T10:49:36.942Z,3.42
2023-03-06T10:52:21.437Z,3.53
2023-03-06T10:54:50.166Z,3.68
2023-03-06T10:57:28.506Z,3.29
2023-03-06T10:59:59.752Z,3.90
2023-03-06T11:02:36.509Z,3.79
2023-03-06T11:05:06.644Z,3.59
2023-03-06T11:07:36.693Z,3.78
2023-03-06T11:10:19.133Z,4.00
2023-03-06T11:13:02.910Z,3.92
2023-03-06T11:15:32.273Z,3.76
2023-03-06T11:18:06.197Z,4.06
2023-03-06T11:20:51.416Z,4.07
2023-03-06T11:23:30.156Z,4.34
2023-03-06T11:26:04.997Z,4.33
2023-03-06T11:28:40.385Z,4.30
2023-03-06T11:31:15.119Z,4.35
2023-03-06T11:33:53.703Z,4.39
2023-03-06T11:36:31.550Z,4.32
2023-03-06T11:39:00.489Z,4.64
2023-03-06T11:41:41.025Z,5.06
2023-03-06T11:44:23.140Z,5.27
2023-03-06T11:47:00.391Z,5.67
2023-03-06T11:49:37.382Z,5.74
2023-03-06T11:52:16.174Z,5.64
2023-03-06T11:54:47.200Z,5.80
2023-03-06T11:57:21.477Z,5.66
2023-03-06T12:00:22.430Z,5.46
2023-03-06T12:03:38.020Z,5.22
2023-03-06T12:06:17.638Z,4.79
2023-03-06T12:09:05.048Z,4.48
2023-03-06T12:11:44.057Z,4.51
2023-03-06T12:14:42.131Z,4.54
2023-03-06T12:17:21.535Z,4.52
2023-03-06T12:20:18.741Z,4.09
2023-03-06T12:23:02.495Z,3.79
2023-03-06T12:25:45.373Z,3.61
2023-03-06T12:28:35.944Z,4.06
2023-03-06T12:31:34.139Z,4.05
2023-03-06T12:34:39.932Z,4.44
2023-03-06T12:37:23.509Z,3.88
2023-03-06T12:40:22.213Z,3.58
2023-03-06T12:43:29.103Z,3.54
2023-03-06T12:46:00.827Z,3.79
2023-03-06T12:48:35.644Z,4.08
2023-03-06T12:51:07.266Z,4.13
2023-03-06T12:53:37.464Z,4.35
2023-03-06T12:56:10.095Z,4.34
2023-03-06T12:58:51.057Z,4.00
2023-03-06T13:01:43.529Z,4.05
2023-03-06T13:04:45.617Z,4.36
2023-03-06T13:07:35.291Z,4.53
2023-03-06T13:10:22.503Z,4.58
2023-03-06T13:13:01.373Z,4.44
2023-03-06T13:15:38.790Z,5.00
2023-03-06T13:19:11.995Z,5.10
2023-03-06T13:22:03.301Z,5.00
2023-03-06T13:24:37.362Z,4.77
2023-03-06T13:27:09.881Z,4.63
2023-03-06T13:30:22.342Z,4.77
2023-03-06T13:32:53.296Z,4.82
2023-03-06T13:35:53.898Z,4.77
2023-03-06T13:38:56.807Z,5.09
2023-03-06T13:41:54.997Z,5.13
2023-03-06T13:44:49.681Z,5.19
2023-03-06T13:48:21.142Z,5.23
2023-03-06T13:50:45.936Z,5.12
2023-03-06T13:54:09.242Z,5.09
2023-03-06T13:57:33.344Z,5.16
2023-03-06T14:00:42.180Z,5.09
2023-03-06T14:03:41.479Z,5.24
2023-03-06T14:06:52.190Z,5.13
2023-03-06T14:09:31.046Z,5.16
2023-03-06T14:12:07.035Z,5.36
2023-03-06T14:14:42.815Z,5.32
2023-03-06T14:17:24.992Z,5.37
2023-03-06T14:19:55.403Z,5.28
2023-03-06T14:22:26.230Z,5.02
2023-03-06T14:25:03.891Z,4.91
2023-03-06T14:27:47.990Z,4.74
2023-03-06T14:30:23.629Z,4.95
2023-03-06T14:32:56.470Z,4.63
2023-03-06T14:35:30.652Z,4.35
2023-03-06T14:38:02.846Z,4.32
2023-03-06T14:40:37.078Z,4.11
2023-03-06T14:43:20.600Z,4.48
2023-03-06T14:45:55.662Z,4.00
2023-03-06T14:48:25.564Z,3.93
2023-03-06T14:50:57.187Z,3.97
2023-03-06T14:53:30.286Z,4.14
2023-03-06T14:56:04.444Z,3.94
2023-03-06T14:58:39.688Z,3.92
2023-03-06T15:01:13.362Z,3.82
2023-03-06T15:03:46.673Z,3.68
2023-03-06T15:06:22.377Z,3.81
2023-03-06T15:09:01.613Z,3.67
2023-03-06T15:11:59.738Z,3.19
2023-03-06T15:14:38.618Z,2.99
2023-03-06T15:17:30.139Z,2.76
2023-03-06T15:20:00.781Z,2.83
2023-03-06T15:22:39.143Z,3.00
2023-03-06T15:25:26.926Z,3.14
2023-03-06T15:27:58.594Z,2.57
2023-03-06T15:30:31.344Z,2.23
2023-03-06T15:33:25.734Z,2.54
2023-03-06T15:35:57.348Z,2.31
2023-03-06T15:38:36.406Z,2.07
2023-03-06T15:41:07.789Z,2.33
2023-03-06T15:43:40.584Z,2.26
2023-03-06T15:46:09.209Z,2.08
2023-03-06T15:48:37.796Z,2.32
2023-03-06T15:51:07.029Z,2.27
2023-03-06T15:53:37.738Z,1.16
2023-03-06T15:56:06.928Z,2.17
2023-03-06T15:58:35.916Z,2.50
2023-03-06T16:01:07.107Z,2.12
2023-03-06T16:03:35.664Z,2.08
2023-03-06T16:06:04.720Z,1.85
2023-03-06T16:08:33.141Z,1.60
2023-03-06T16:11:03.072Z,1.80
2023-03-06T16:13:31.736Z,1.51
2023-03-06T16:16:00.964Z,1.39
2023-03-06T16:18:31.542Z,1.58
2023-03-06T16:21:00.497Z,1.55
2023-03-06T16:23:29.274Z,1.58
2023-03-06T16:26:00.499Z,1.43
2023-03-06T16:28:30.525Z,1.31
2023-03-06T16:30:59.264Z,1.44
2023-03-06T16:33:27.834Z,1.18
2023-03-06T16:35:56.595Z,1.53
2023-03-06T16:38:25.620Z,1.32
2023-03-06T16:40:54.204Z,1.06
2023-03-06T16:43:22.696Z,1.29
2023-03-06T16:45:52.813Z,1.33
2023-03-06T16:48:21.309Z,1.25
2023-03-06T16:50:50.374Z,1.09
2023-03-06T16:53:19.514Z,0.72
2023-03-06T16:55:48.630Z,1.15
2023-03-06T16:58:17.309Z,1.13
2023-03-06T17:00:45.811Z,0.96
2023-03-06T17:03:16.779Z,0.96
2023-03-06T17:05:45.778Z,1.14
2023-03-06T17:08:14.307Z,1.37
2023-03-06T17:10:44.917Z,1.26
2023-03-06T17:13:13.673Z,1.14
2023-03-06T17:15:42.198Z,1.15
2023-03-06T17:18:10.649Z,1.07
2023-03-06T17:20:40.797Z,0.86
2023-03-06T17:23:09.316Z,0.83
2023-03-06T17:25:38.487Z,0.92
2023-03-06T17:28:07.238Z,0.78
2023-03-06T17:30:35.656Z,-0.03
2023-03-06T17:33:05.422Z,0.11
2023-03-06T17:35:36.967Z,0.26
2023-03-06T17:38:06.835Z,0.26
2023-03-06T17:40:36.625Z,0.49
2023-03-06T17:43:05.539Z,0.30
2023-03-06T17:45:37.876Z,0.29
2023-03-06T17:48:06.679Z,0.01
2023-03-06T17:50:37.042Z,0.34
2023-03-06T17:53:07.126Z,0.32
2023-03-06T17:55:39.029Z,0.59
2023-03-06T17:58:07.837Z,0.15
2023-03-06T18:00:37.201Z,0.10
2023-03-06T18:03:05.896Z,0.36
2023-03-06T18:05:34.592Z,0.48
2023-03-06T18:08:02.903Z,0.42
2023-03-06T18:10:33.053Z,0.40
2023-03-06T18:13:02.389Z,0.27
2023-03-06T18:15:30.946Z,0.35
2023-03-06T18:17:59.678Z,0.49
2023-03-06T18:20:28.721Z,0.43
2023-03-06T18:22:59.680Z,0.46
2023-03-06T18:25:28.060Z,0.36
2023-03-06T18:27:57.901Z,0.41
2023-03-06T18:30:26.743Z,0.31
2023-03-06T18:32:55.736Z,-0.04
2023-03-06T18:35:24.456Z,0.19
2023-03-06T18:37:53.625Z,0.24
2023-03-06T18:40:24.561Z,0.07
2023-03-06T18:42:54.253Z,0.36
2023-03-06T18:45:24.010Z,0.04
2023-03-06T18:47:52.484Z,0.55
2023-03-06T18:50:21.201Z,0.46
2023-03-06T18:52:50.279Z,0.41
2023-03-06T18:55:18.908Z,-0.90
2023-03-06T18:57:47.514Z,-0.20
2023-03-06T19:00:18.290Z,0.10
2023-03-06T19:02:48.290Z,-0.01
2023-03-06T19:05:17.296Z,-0.31
2023-03-06T19:07:46.801Z,0.47
2023-03-06T19:10:15.388Z,0.45
2023-03-06T19:12:52.770Z,0.15
2023-03-06T19:15:21.209Z,0.33
2023-03-06T19:17:52.263Z,0.61
2023-03-06T19:20:21.555Z,0.64
2023-03-06T19:22:50.619Z,-0.21
2023-03-06T19:25:20.078Z,0.36
2023-03-06T19:27:48.523Z,0.53
2023-03-06T19:30:17.869Z,-0.39
2023-03-06T19:32:47.779Z,0.19
2023-03-06T19:35:18.201Z,0.49
2023-03-06T19:37:47.167Z,-0.32
2023-03-06T19:40:16.174Z,0.02
2023-03-06T19:42:44.739Z,-0.50
2023-03-06T19:45:14.055Z,0.30
2023-03-06T19:47:42.652Z,0.53
2023-03-06T19:50:12.665Z,0.24
2023-03-06T19:52:42.642Z,-0.58
2023-03-06T19:55:12.298Z,0.50
2023-03-06T19:57:41.123Z,0.57
2023-03-06T20:00:12.237Z,0.58
2023-03-06T20:02:43.882Z,-1.31
2023-03-06T20:05:12.426Z,0.15
2023-03-06T20:07:42.315Z,0.71
2023-03-06T20:10:12.714Z,0.75
2023-03-06T20:12:41.289Z,0.47
2023-03-06T20:15:11.169Z,0.64
2023-03-06T20:17:40.732Z,0.48
2023-03-06T20:20:11.640Z,0.46
2023-03-06T20:22:41.542Z,0.36
2023-03-06T20:25:10.837Z,0.23
2023-03-06T20:27:39.831Z,0.44
2023-03-06T20:30:10.392Z,0.74
2023-03-06T20:32:38.984Z,0.78
2023-03-06T20:35:09.603Z,0.54
2023-03-06T20:37:40.855Z,0.73
2023-03-06T20:40:12.871Z,0.65
2023-03-06T20:42:41.319Z,0.96
2023-03-06T20:45:11.103Z,0.87
2023-03-06T20:47:39.530Z,0.54
2023-03-06T20:50:09.208Z,0.97
2023-03-06T20:52:37.668Z,1.02
2023-03-06T20:55:07.544Z,0.98
2023-03-06T20:57:37.366Z,1.00
2023-03-06T21:00:08.760Z,0.76
2023-03-06T21:02:37.299Z,0.75
2023-03-06T21:05:06.625Z,0.78
2023-03-06T21:07:35.117Z,0.46
2023-03-06T21:10:03.682Z,-0.68
2023-03-06T21:12:32.260Z,-0.54
2023-03-06T21:15:02.109Z,-0.67
2023-03-06T21:17:30.602Z,0.69
2023-03-06T21:19:59.236Z,0.14
2023-03-06T21:22:30.217Z,0.71
2023-03-06T21:24:58.722Z,0.76
2023-03-06T21:27:27.461Z,0.84
2023-03-06T21:29:56.005Z,0.84
2023-03-06T21:32:25.921Z,0.35
2023-03-06T21:34:54.350Z,0.86
2023-03-06T21:37:22.876Z,0.57
2023-03-06T21:39:51.276Z,0.83
2023-03-06T21:42:19.718Z,0.74
2023-03-06T21:44:48.206Z,0.47
2023-03-06T21:47:16.745Z,0.69
2023-03-06T21:49:46.536Z,0.90
2023-03-06T21:52:14.937Z,-0.74
2023-03-06T21:54:43.418Z,0.68
2023-03-06T21:57:11.856Z,0.82
2023-03-06T21:59:40.685Z,-0.22
2023-03-06T22:02:11.108Z,0.91
2023-03-06T22:04:39.881Z,0.83
2023-03-06T22:07:10.090Z,-0.24
2023-03-06T22:09:38.680Z,0.99
2023-03-06T22:12:08.196Z,0.90
2023-03-06T22:14:36.826Z,0.95
2023-03-06T22:17:05.517Z,1.06
2023-03-06T22:19:34.082Z,1.01
2023-03-06T22:22:02.436Z,0.97
2023-03-06T22:24:33.748Z,0.81
2023-03-06T22:27:02.255Z,0.74
2023-03-06T22:29:30.862Z,0.70
2023-03-06T22:31:59.253Z,1.33
2023-03-06T22:34:27.701Z,1.03
2023-03-06T22:36:56.361Z,1.33
2023-03-06T22:39:24.781Z,1.14
2023-03-06T22:41:56.469Z,0.42
2023-03-06T22:44:25.103Z,1.13
2023-03-06T22:46:53.561Z,1.14
2023-03-06T22:49:22.015Z,1.18
2023-03-06T22:51:50.518Z,1.23
2023-03-06T22:54:18.962Z,1.26
2023-03-06T22:56:47.472Z,1.42
2023-03-06T22:59:17.325Z,1.31
2023-03-06T23:01:45.684Z,0.90
2023-03-06T23:04:17.028Z,1.22
2023-03-06T23:06:47.028Z,1.13
2023-03-06T23:09:20.495Z,1.06
2023-03-06T23:12:09.066Z,0.90
2023-03-06T23:14:57.153Z,0.12
2023-03-06T23:17:44.480Z,0.89
2023-03-06T23:20:31.581Z,0.99
2023-03-06T23:23:18.603Z,0.91
2023-03-06T23:25:46.951Z,0.97
2023-03-06T23:28:15.524Z,0.78
2023-03-06T23:30:45.668Z,1.05
2023-03-06T23:33:14.126Z,1.03
2023-03-06T23:35:44.122Z,1.01
2023-03-06T23:38:12.788Z,1.01
2023-03-06T23:40:41.537Z,0.58
2023-03-06T23:43:10.109Z,1.12
2023-03-06T23:45:38.416Z,0.96
2023-03-06T23:48:08.946Z,0.98
2023-03-06T23:50:41.136Z,0.98
2023-03-06T23:53:09.527Z,1.05
2023-03-06T23:55:41.907Z,0.70
2023-03-06T23:58:10.369Z,1.11
